KGGG

East Texas Regional Airport

Longview, Texas, USA
METAR KGGG 101553Z 35004KT 10SM CLR 04/M01 A3040 RMK AO2 SLP298 T00441006
Observed Flight Rules
Dec-10 @ 15:53 UTC (24 minutes ago) Visual Flight Rules
Wind Visibility Clouds
350° at 4 knots 10 miles
  • Clear skies
Temperatures Readings
Current 4°C / 39°F
Dewpoint -1°C / 30°F
Humidity 70%
Altimeter 30.4" Hg
Pressure 1029.8 hPa
Elevation 107
METAR KGGG 101553Z 35004KT 10SM CLR 04/M01 A3040 RMK AO2 SLP298 T00441006
Observed Flight Rules
Dec-10 @ 15:53 UTC
(24 minutes ago)
VFR
Wind Visibility
350° at 4 knots 10 miles
Clouds
  • Clear skies
Temperature Dewpoint
4°C / 39°F -1°C / 30°F
Humidity Altimeter Pressure
70% 30.4" Hg 1029.8 hPa